Time;durP1;ratioP1;P1;durP2;ratioP2;P2;SDS_P1;SDS_P2;PMS_P1;PMS_P2;Temp;Humidity;BMP_temperature;BMP_pressure;BME280_temperature;BME280_humidity;BME280_pressure;Samples;Min_cycle;Max_cycle;Signal;HPM_P1;HPM_P2
2023/02/08 00:00:04;;;;;;;12.70;4.75;;;;;;;;;;5079774;28;20067;-62
2023/02/08 00:02:34;;;;;;;12.00;4.40;;;;;;;;;;5115574;28;20059;-63
2023/02/08 00:05:06;;;;;;;15.05;4.57;;;;;;;;;;5108130;28;20690;-63
2023/02/08 00:07:36;;;;;;;19.33;4.32;;;;;;;;;;5114390;28;20363;-64
2023/02/08 00:10:06;;;;;;;14.25;4.93;;;;;;;;;;5029560;28;20051;-63
2023/02/08 00:12:36;;;;;;;15.30;5.32;;;;;;;;;;5063114;28;20514;-63
2023/02/08 00:15:07;;;;;;;13.77;4.60;;;;;;;;;;5078094;28;20523;-63
2023/02/08 00:17:37;;;;;;;17.92;5.18;;;;;;;;;;5114273;28;20039;-63
2023/02/08 00:20:07;;;;;;;12.35;4.90;;;;;;;;;;5077913;28;20047;-64
2023/02/08 00:22:38;;;;;;;17.17;4.75;;;;;;;;;;5114225;28;20047;-63
2023/02/08 00:25:08;;;;;;;10.32;4.65;;;;;;;;;;5113787;28;20495;-63
2023/02/08 00:27:39;;;;;;;11.55;4.85;;;;;;;;;;5113902;28;20056;-63
2023/02/08 00:30:09;;;;;;;12.93;4.80;;;;;;;;;;5114111;28;20054;-63
2023/02/08 00:32:39;;;;;;;10.60;4.45;;;;;;;;;;5037730;28;20040;-63
2023/02/08 00:35:09;;;;;;;15.55;4.60;;;;;;;;;;5053883;28;20062;-63
2023/02/08 00:37:41;;;;;;;11.30;4.22;;;;;;;;;;4981906;28;20057;-63
2023/02/08 00:40:11;;;;;;;12.20;4.85;;;;;;;;;;5014379;28;20109;-63
2023/02/08 00:42:42;;;;;;;13.40;4.53;;;;;;;;;;4997849;28;20200;-63
2023/02/08 00:45:12;;;;;;;13.27;4.95;;;;;;;;;;5031078;28;20057;-63
2023/02/08 00:47:42;;;;;;;13.70;4.88;;;;;;;;;;5066261;28;20059;-63
2023/02/08 00:50:12;;;;;;;11.52;4.80;;;;;;;;;;5070533;28;20504;-63
2023/02/08 00:52:42;;;;;;;23.90;5.47;;;;;;;;;;5053702;28;20579;-63
2023/02/08 00:55:14;;;;;;;14.07;5.22;;;;;;;;;;5021002;28;20049;-64
2023/02/08 00:57:44;;;;;;;12.60;5.20;;;;;;;;;;5034304;28;20041;-64
2023/02/08 01:00:15;;;;;;;15.18;4.70;;;;;;;;;;5011377;28;20041;-64
2023/02/08 01:02:45;;;;;;;12.77;4.40;;;;;;;;;;4994756;28;20808;-64
2023/02/08 01:05:15;;;;;;;16.55;5.65;;;;;;;;;;4942375;28;20058;-64
2023/02/08 01:07:46;;;;;;;10.15;4.55;;;;;;;;;;4958032;28;20519;-64
2023/02/08 01:10:16;;;;;;;9.90;5.22;;;;;;;;;;4970982;28;20206;-64
2023/02/08 01:12:46;;;;;;;13.63;4.70;;;;;;;;;;4932612;29;20056;-65
2023/02/08 01:15:17;;;;;;;12.48;4.38;;;;;;;;;;4932809;29;20056;-64
2023/02/08 01:17:47;;;;;;;12.43;5.10;;;;;;;;;;4942275;28;20099;-64
2023/02/08 01:20:17;;;;;;;17.00;4.93;;;;;;;;;;4920953;28;20168;-64
2023/02/08 01:22:47;;;;;;;16.50;4.60;;;;;;;;;;4920040;28;20062;-65
2023/02/08 01:25:18;;;;;;;13.85;5.00;;;;;;;;;;4932253;29;20051;-64
2023/02/08 01:27:49;;;;;;;18.27;4.53;;;;;;;;;;4912986;29;20048;-64
2023/02/08 01:30:19;;;;;;;13.38;5.00;;;;;;;;;;4913031;29;20067;-65
2023/02/08 01:32:50;;;;;;;17.70;4.97;;;;;;;;;;4913476;29;20203;-65
2023/02/08 01:35:19;;;;;;;11.32;4.65;;;;;;;;;;4875463;29;20053;-64
2023/02/08 01:37:50;;;;;;;14.00;5.00;;;;;;;;;;4865668;29;20065;-64
2023/02/08 01:40:20;;;;;;;12.77;5.15;;;;;;;;;;4875744;29;20064;-64
2023/02/08 01:42:51;;;;;;;14.98;5.18;;;;;;;;;;4903066;29;20059;-64
2023/02/08 01:45:26;;;;;;;12.82;4.82;;;;;;;;;;4913167;29;20063;-64
2023/02/08 01:48:07;;;;;;;11.90;5.00;;;;;;;;;;4913092;29;20060;-64
2023/02/08 01:51:04;;;;;;;24.08;6.07;;;;;;;;;;4912424;29;20068;-64
2023/02/08 01:53:35;;;;;;;15.45;4.97;;;;;;;;;;4900380;29;20060;-64
2023/02/08 01:56:10;;;;;;;16.30;5.45;;;;;;;;;;4931849;29;20555;-64
2023/02/08 01:58:45;;;;;;;14.02;4.95;;;;;;;;;;4893861;29;20053;-64
2023/02/08 02:01:16;;;;;;;10.07;4.93;;;;;;;;;;4912461;29;20048;-64
2023/02/08 02:03:46;;;;;;;14.23;6.13;;;;;;;;;;4928610;29;20472;-64
2023/02/08 02:06:21;;;;;;;10.50;5.28;;;;;;;;;;4967209;28;20094;-64
2023/02/08 02:09:01;;;;;;;13.98;4.63;;;;;;;;;;4970110;28;20046;-64
2023/02/08 02:11:31;;;;;;;12.63;4.70;;;;;;;;;;4969845;28;20063;-64
2023/02/08 02:14:02;;;;;;;12.68;4.85;;;;;;;;;;4987643;28;20067;-64
2023/02/08 02:16:32;;;;;;;14.80;4.82;;;;;;;;;;4993141;28;20069;-64
2023/02/08 02:19:05;;;;;;;14.07;5.28;;;;;;;;;;4988803;28;20046;-64
2023/02/08 02:21:57;;;;;;;11.82;4.57;;;;;;;;;;4959727;28;20051;-64
2023/02/08 02:24:41;;;;;;;12.18;4.93;;;;;;;;;;4964350;28;20078;-64
2023/02/08 02:27:26;;;;;;;11.93;5.07;;;;;;;;;;4970436;28;20150;-63
2023/02/08 02:30:25;;;;;;;12.98;5.05;;;;;;;;;;4972234;28;20046;-64
2023/02/08 02:33:14;;;;;;;13.20;4.60;;;;;;;;;;4992819;28;20062;-64
2023/02/08 02:35:59;;;;;;;14.73;5.25;;;;;;;;;;4969536;28;20411;-64
2023/02/08 02:38:55;;;;;;;12.55;4.60;;;;;;;;;;4969966;28;20546;-64
2023/02/08 02:45:18;;;;;;;15.25;5.55;;;;;;;;;;4950502;29;20393;-64
2023/02/08 02:48:16;;;;;;;12.02;5.57;;;;;;;;;;4950506;29;20059;-64
2023/02/08 02:50:54;;;;;;;14.77;4.85;;;;;;;;;;4950399;29;20066;-64
2023/02/08 02:53:45;;;;;;;15.55;4.82;;;;;;;;;;4950077;29;20051;-64
2023/02/08 02:56:28;;;;;;;15.45;5.10;;;;;;;;;;4934390;29;20058;-64
2023/02/08 02:59:03;;;;;;;15.40;5.15;;;;;;;;;;4957745;28;20565;-64
2023/02/08 03:01:34;;;;;;;11.35;4.85;;;;;;;;;;4950191;29;20499;-64
2023/02/08 03:04:18;;;;;;;12.10;4.70;;;;;;;;;;4946099;29;20062;-64
2023/02/08 03:07:25;;;;;;;13.68;4.80;;;;;;;;;;4931257;29;20063;-64
2023/02/08 03:09:58;;;;;;;12.82;4.78;;;;;;;;;;4931514;29;20055;-64
2023/02/08 03:12:43;;;;;;;10.95;4.63;;;;;;;;;;4938172;28;20060;-64
2023/02/08 03:15:13;;;;;;;13.75;5.05;;;;;;;;;;4988856;28;20066;-64
2023/02/08 03:18:15;;;;;;;12.82;4.60;;;;;;;;;;4988808;28;20071;-65
2023/02/08 03:21:16;;;;;;;10.05;4.80;;;;;;;;;;4964725;28;20054;-64
2023/02/08 03:24:00;;;;;;;15.02;5.07;;;;;;;;;;4960289;28;20459;-64
2023/02/08 03:26:48;;;;;;;11.93;5.07;;;;;;;;;;4950103;28;20062;-64
2023/02/08 03:29:28;;;;;;;12.10;4.53;;;;;;;;;;4950139;28;20051;-64
2023/02/08 03:32:09;;;;;;;18.73;5.18;;;;;;;;;;4956179;28;20555;-65
2023/02/08 03:35:00;;;;;;;13.80;5.07;;;;;;;;;;4972644;28;20093;-64
2023/02/08 03:37:57;;;;;;;16.08;4.93;;;;;;;;;;4973288;28;20059;-64
2023/02/08 03:40:29;;;;;;;12.13;5.38;;;;;;;;;;4915530;29;21174;-64
2023/02/08 03:43:07;;;;;;;11.60;5.78;;;;;;;;;;4899637;29;20051;-64
2023/02/08 03:45:50;;;;;;;14.57;5.35;;;;;;;;;;4883708;29;20060;-64
2023/02/08 03:48:20;;;;;;;14.05;4.90;;;;;;;;;;4915251;29;20056;-64
2023/02/08 03:50:54;;;;;;;13.98;5.18;;;;;;;;;;4900651;29;20067;-64
2023/02/08 03:53:27;;;;;;;12.82;5.13;;;;;;;;;;4934267;29;20060;-64
2023/02/08 03:55:59;;;;;;;;;;;;;;;;;;4918009;29;20051;-64
2023/02/08 03:58:37;;;;;;;16.33;4.60;;;;;;;;;;4918222;29;19930;-64
2023/02/08 04:01:12;;;;;;;;;;;;;;;;;;4947380;29;20063;-64
2023/02/08 04:03:44;;;;;;;12.70;4.47;;;;;;;;;;4959524;28;19922;-64
2023/02/08 04:06:14;;;;;;;9.20;5.13;;;;;;;;;;4972969;28;20498;-64
2023/02/08 04:08:44;;;;;;;11.15;4.97;;;;;;;;;;4972693;28;20050;-64
2023/02/08 04:11:15;;;;;;;11.63;4.90;;;;;;;;;;4940291;28;20571;-64
2023/02/08 04:13:45;;;;;;;10.32;4.43;;;;;;;;;;4956557;28;20070;-64
2023/02/08 04:16:16;;;;;;;12.40;4.82;;;;;;;;;;4971807;28;20065;-64
2023/02/08 04:18:46;;;;;;;12.93;4.95;;;;;;;;;;5052047;28;20065;-64
2023/02/08 04:21:16;;;;;;;13.27;5.53;;;;;;;;;;5053658;28;20049;-64
2023/02/08 04:23:46;;;;;;;11.95;5.03;;;;;;;;;;5053228;28;20048;-64
2023/02/08 04:26:16;;;;;;;11.10;5.18;;;;;;;;;;5064663;28;20064;-64
2023/02/08 04:28:46;;;;;;;12.40;5.10;;;;;;;;;;5100225;28;20048;-64
2023/02/08 04:31:16;;;;;;;15.35;6.03;;;;;;;;;;5078613;28;20056;-64
2023/02/08 04:33:47;;;;;;;11.98;5.55;;;;;;;;;;5077573;28;20052;-64
2023/02/08 04:36:18;;;;;;;11.45;6.00;;;;;;;;;;5081215;28;20442;-64
2023/02/08 04:38:48;;;;;;;13.85;5.25;;;;;;;;;;5058753;28;20546;-64
2023/02/08 04:41:18;;;;;;;9.68;4.90;;;;;;;;;;5093575;28;20071;-64
2023/02/08 04:43:48;;;;;;;9.48;5.30;;;;;;;;;;5090324;28;20056;-64
2023/02/08 04:46:18;;;;;;;14.18;4.82;;;;;;;;;;5101238;28;20047;-64
2023/02/08 04:48:49;;;;;;;12.77;5.00;;;;;;;;;;5078409;28;20048;-64
2023/02/08 04:51:20;;;;;;;10.75;5.15;;;;;;;;;;5078041;28;20051;-65
2023/02/08 04:53:50;;;;;;;14.25;5.07;;;;;;;;;;5113605;28;20050;-64
2023/02/08 04:56:20;;;;;;;11.30;5.25;;;;;;;;;;5056938;28;20059;-65
2023/02/08 04:58:50;;;;;;;13.32;5.25;;;;;;;;;;5102159;28;20039;-65
2023/02/08 05:01:20;;;;;;;10.70;4.85;;;;;;;;;;5050239;28;20057;-65
2023/02/08 05:03:50;;;;;;;11.32;4.93;;;;;;;;;;5050430;28;20064;-65
2023/02/08 05:06:20;;;;;;;12.90;5.28;;;;;;;;;;5047739;28;20053;-64
2023/02/08 05:08:50;;;;;;;12.15;4.60;;;;;;;;;;5029968;28;20054;-64
2023/02/08 05:11:24;;;;;;;13.15;5.30;;;;;;;;;;5030358;28;20045;-64
2023/02/08 05:13:54;;;;;;;12.15;5.35;;;;;;;;;;5013931;28;20057;-64
2023/02/08 05:16:24;;;;;;;10.35;4.97;;;;;;;;;;5030225;28;20050;-64
2023/02/08 05:18:57;;;;;;;15.05;5.13;;;;;;;;;;5030188;28;20054;-65
2023/02/08 05:21:27;;;;;;;10.85;4.93;;;;;;;;;;5030018;28;20045;-64
2023/02/08 05:23:57;;;;;;;10.52;4.80;;;;;;;;;;4996914;28;20053;-64
2023/02/08 05:26:27;;;;;;;11.00;5.38;;;;;;;;;;4989982;28;20058;-64
2023/02/08 05:28:58;;;;;;;11.65;5.00;;;;;;;;;;4974174;28;20053;-64
2023/02/08 05:31:28;;;;;;;13.77;5.53;;;;;;;;;;4990790;28;20407;-64
2023/02/08 05:33:58;;;;;;;10.68;4.90;;;;;;;;;;4990361;28;20050;-64
2023/02/08 05:36:30;;;;;;;9.73;4.70;;;;;;;;;;4990489;28;20050;-65
2023/02/08 05:39:01;;;;;;;9.10;4.50;;;;;;;;;;5036308;28;20061;-65
2023/02/08 05:41:31;;;;;;;14.75;4.78;;;;;;;;;;5052754;28;20053;-65
2023/02/08 05:44:01;;;;;;;10.90;5.25;;;;;;;;;;5069359;28;20060;-65
2023/02/08 05:46:31;;;;;;;14.50;5.80;;;;;;;;;;5052766;28;20045;-65
2023/02/08 05:49:04;;;;;;;12.90;5.13;;;;;;;;;;5081994;28;20052;-64
2023/02/08 05:51:34;;;;;;;12.48;4.63;;;;;;;;;;5055754;28;20048;-65
2023/02/08 05:54:04;;;;;;;11.45;4.55;;;;;;;;;;5072649;28;20063;-65
2023/02/08 05:56:34;;;;;;;10.38;4.80;;;;;;;;;;5089158;28;20506;-65
2023/02/08 05:59:04;;;;;;;14.18;5.00;;;;;;;;;;5042195;28;20049;-64
2023/02/08 06:01:34;;;;;;;12.57;5.22;;;;;;;;;;5049491;28;20049;-65
2023/02/08 06:04:04;;;;;;;11.00;5.32;;;;;;;;;;5019627;28;20105;-64
2023/02/08 06:06:35;;;;;;;13.50;4.72;;;;;;;;;;5068901;28;20052;-65
2023/02/08 06:09:05;;;;;;;14.00;5.30;;;;;;;;;;5039496;28;20098;-64
2023/02/08 06:11:35;;;;;;;14.43;5.40;;;;;;;;;;5055491;28;20494;-65
2023/02/08 06:14:05;;;;;;;14.73;5.93;;;;;;;;;;5056155;28;20059;-64
2023/02/08 06:16:36;;;;;;;14.05;5.40;;;;;;;;;;5089439;28;20052;-65
2023/02/08 06:19:06;;;;;;;12.23;5.97;;;;;;;;;;5044082;28;20040;-64
2023/02/08 06:21:35;;;;;;;14.23;6.45;;;;;;;;;;5066977;28;20451;-64
2023/02/08 06:24:06;;;;;;;14.13;5.55;;;;;;;;;;5089026;28;20411;-64
2023/02/08 06:26:36;;;;;;;16.48;5.50;;;;;;;;;;5089083;28;20044;-64
2023/02/08 06:29:06;;;;;;;12.93;5.68;;;;;;;;;;5047862;28;20500;-64
2023/02/08 06:31:36;;;;;;;11.90;6.00;;;;;;;;;;5035188;28;20056;-64
2023/02/08 06:34:06;;;;;;;14.00;7.38;;;;;;;;;;5028657;28;20046;-65
2023/02/08 06:36:36;;;;;;;13.77;5.80;;;;;;;;;;5012150;28;20053;-64
2023/02/08 06:39:06;;;;;;;16.15;5.38;;;;;;;;;;4984190;28;20100;-65
2023/02/08 06:41:36;;;;;;;17.02;4.97;;;;;;;;;;5048581;28;20037;-65
2023/02/08 06:44:07;;;;;;;14.80;5.90;;;;;;;;;;5067077;28;20063;-64
2023/02/08 06:46:37;;;;;;;10.45;5.20;;;;;;;;;;5039452;28;20055;-65
2023/02/08 06:49:07;;;;;;;11.25;5.93;;;;;;;;;;5086301;28;20946;-65
2023/02/08 06:51:37;;;;;;;12.65;5.10;;;;;;;;;;5020143;28;20104;-65
2023/02/08 06:54:07;;;;;;;11.60;5.43;;;;;;;;;;5068603;28;20067;-64
2023/02/08 06:56:37;;;;;;;13.27;5.88;;;;;;;;;;5068527;28;20076;-65
2023/02/08 06:59:07;;;;;;;42.17;6.32;;;;;;;;;;5052089;28;20056;-65
2023/02/08 07:01:37;;;;;;;31.98;5.90;;;;;;;;;;5048178;28;20056;-65
2023/02/08 07:04:07;;;;;;;14.63;5.07;;;;;;;;;;5048473;28;20075;-65
2023/02/08 07:06:38;;;;;;;30.75;6.47;;;;;;;;;;5050270;28;20049;-65
2023/02/08 07:09:08;;;;;;;11.77;5.50;;;;;;;;;;5052585;28;20057;-65
2023/02/08 07:11:38;;;;;;;12.93;6.07;;;;;;;;;;5088688;28;20055;-65
2023/02/08 07:14:12;;;;;;;16.75;6.63;;;;;;;;;;5101179;28;20091;-65
2023/02/08 07:16:42;;;;;;;12.73;5.45;;;;;;;;;;5092433;28;20052;-65
2023/02/08 07:19:12;;;;;;;12.82;5.75;;;;;;;;;;5075500;28;20059;-65
2023/02/08 07:21:43;;;;;;;12.05;5.60;;;;;;;;;;5050483;28;20045;-65
2023/02/08 07:24:13;;;;;;;14.00;5.68;;;;;;;;;;5072137;28;20123;-65
2023/02/08 07:26:43;;;;;;;12.93;5.50;;;;;;;;;;5055662;28;20048;-65
2023/02/08 07:29:13;;;;;;;12.50;5.35;;;;;;;;;;5072204;28;20056;-65
2023/02/08 07:31:43;;;;;;;11.70;5.50;;;;;;;;;;5071851;28;20160;-65
2023/02/08 07:34:13;;;;;;;10.80;4.95;;;;;;;;;;5072256;28;20060;-65
2023/02/08 07:36:43;;;;;;;18.55;5.50;;;;;;;;;;5071794;28;20056;-65
2023/02/08 07:39:13;;;;;;;16.02;5.20;;;;;;;;;;5022787;28;20139;-65
2023/02/08 07:41:43;;;;;;;13.15;5.82;;;;;;;;;;5071675;28;20079;-65
2023/02/08 07:44:13;;;;;;;12.70;5.65;;;;;;;;;;5071598;28;20120;-65
2023/02/08 07:46:43;;;;;;;12.45;5.18;;;;;;;;;;5071960;28;20052;-65
2023/02/08 07:49:13;;;;;;;12.82;5.60;;;;;;;;;;5071748;28;20504;-65
2023/02/08 07:51:43;;;;;;;11.75;6.13;;;;;;;;;;5017073;28;20053;-65
2023/02/08 07:54:13;;;;;;;11.50;5.57;;;;;;;;;;5062105;28;20048;-65
2023/02/08 07:56:43;;;;;;;11.70;5.50;;;;;;;;;;5043564;28;20067;-65
2023/02/08 07:59:13;;;;;;;15.73;5.85;;;;;;;;;;5081678;28;20048;-65
2023/02/08 08:01:44;;;;;;;12.13;5.40;;;;;;;;;;5093904;28;20039;-65
2023/02/08 08:04:14;;;;;;;12.50;5.38;;;;;;;;;;5038821;28;20040;-65
2023/02/08 08:06:45;;;;;;;12.50;6.05;;;;;;;;;;5037864;28;20051;-65
2023/02/08 08:09:15;;;;;;;10.27;5.35;;;;;;;;;;5031226;28;20045;-65
2023/02/08 08:11:45;;;;;;;14.95;5.85;;;;;;;;;;4997951;28;20052;-65
2023/02/08 08:14:15;;;;;;;18.33;6.80;;;;;;;;;;4982282;28;20088;-65
2023/02/08 08:16:46;;;;;;;11.60;5.30;;;;;;;;;;5031424;28;20053;-65
2023/02/08 08:19:16;;;;;;;17.02;5.85;;;;;;;;;;5030324;28;20041;-65
2023/02/08 08:21:46;;;;;;;10.35;5.20;;;;;;;;;;5031164;28;20057;-65
2023/02/08 08:24:16;;;;;;;12.98;5.25;;;;;;;;;;5030758;28;20053;-65
2023/02/08 08:26:46;;;;;;;15.48;5.32;;;;;;;;;;5030833;28;20061;-65
2023/02/08 08:29:17;;;;;;;13.52;6.68;;;;;;;;;;4983664;28;20057;-65
2023/02/08 08:31:47;;;;;;;18.58;7.00;;;;;;;;;;5030970;28;20050;-65
2023/02/08 08:34:17;;;;;;;18.38;6.82;;;;;;;;;;5030485;28;20057;-65
2023/02/08 08:36:47;;;;;;;16.80;6.95;;;;;;;;;;4959024;28;20051;-65
2023/02/08 08:39:17;;;;;;;14.57;6.00;;;;;;;;;;4975083;28;20050;-65
2023/02/08 08:41:47;;;;;;;13.30;6.15;;;;;;;;;;4993350;28;20053;-65
2023/02/08 08:44:17;;;;;;;17.70;6.05;;;;;;;;;;4996615;28;20101;-65
2023/02/08 08:46:47;;;;;;;13.52;5.47;;;;;;;;;;5030114;28;20084;-65
2023/02/08 08:49:18;;;;;;;14.80;6.15;;;;;;;;;;4997576;28;20053;-65
2023/02/08 08:51:48;;;;;;;15.38;6.07;;;;;;;;;;5014254;28;20053;-65
2023/02/08 08:54:19;;;;;;;14.65;6.25;;;;;;;;;;5040305;28;20057;-65
2023/02/08 08:56:49;;;;;;;13.32;6.80;;;;;;;;;;5050316;28;20049;-65
2023/02/08 08:59:19;;;;;;;14.90;5.82;;;;;;;;;;5018070;28;20049;-65
2023/02/08 09:01:49;;;;;;;14.13;5.75;;;;;;;;;;5033511;28;20052;-65
2023/02/08 09:04:21;;;;;;;10.50;5.32;;;;;;;;;;5059014;28;20056;-65
2023/02/08 09:06:52;;;;;;;11.82;5.40;;;;;;;;;;5070097;28;20041;-65
2023/02/08 09:09:22;;;;;;;12.70;5.25;;;;;;;;;;5036571;28;20412;-65
2023/02/08 09:11:52;;;;;;;11.00;5.47;;;;;;;;;;5070215;28;20056;-66
2023/02/08 09:14:23;;;;;;;19.15;5.80;;;;;;;;;;5080719;28;20451;-65
2023/02/08 09:16:53;;;;;;;11.15;5.45;;;;;;;;;;5090519;28;20519;-64
2023/02/08 09:19:24;;;;;;;11.68;5.60;;;;;;;;;;5057117;28;20048;-65
2023/02/08 09:21:54;;;;;;;11.30;5.40;;;;;;;;;;5092516;28;20391;-65
2023/02/08 09:24:24;;;;;;;15.55;5.70;;;;;;;;;;5092230;28;20043;-64
2023/02/08 09:26:54;;;;;;;11.18;5.78;;;;;;;;;;5092523;28;20036;-65
2023/02/08 09:29:28;;;;;;;11.43;5.20;;;;;;;;;;5111280;28;20051;-65
2023/02/08 09:31:58;;;;;;;12.88;5.75;;;;;;;;;;5076715;28;20054;-64
2023/02/08 09:34:30;;;;;;;14.35;5.45;;;;;;;;;;5112719;28;20046;-64
2023/02/08 09:37:02;;;;;;;18.23;5.63;;;;;;;;;;5057190;28;20075;-64
2023/02/08 09:39:33;;;;;;;12.48;5.70;;;;;;;;;;5039855;28;20058;-65
2023/02/08 09:42:29;;;;;;;13.68;5.35;;;;;;;;;;5073068;28;20060;-64
2023/02/08 09:45:18;;;;;;;13.48;5.82;;;;;;;;;;5092373;28;20404;-65
2023/02/08 09:48:17;;;;;;;19.33;5.88;;;;;;;;;;5110393;28;20047;-65
2023/02/08 09:51:25;;;;;;;12.57;6.03;;;;;;;;;;5089403;28;20055;-65
2023/02/08 09:54:31;;;;;;;15.80;5.63;;;;;;;;;;4993407;28;20061;-65
2023/02/08 09:57:06;;;;;;;16.05;5.65;;;;;;;;;;4964594;28;20051;-64
2023/02/08 09:59:38;;;;;;;19.73;6.75;;;;;;;;;;4970595;28;20047;-64
2023/02/08 10:02:32;;;;;;;21.27;7.10;;;;;;;;;;4970151;28;20059;-64
2023/02/08 10:05:10;;;;;;;21.75;7.38;;;;;;;;;;4881721;29;20579;-65
2023/02/08 10:07:42;;;;;;;20.70;6.28;;;;;;;;;;4896100;29;20044;-65
2023/02/08 10:10:21;;;;;;;15.38;6.50;;;;;;;;;;4896826;29;20056;-64
2023/02/08 10:13:06;;;;;;;13.45;6.80;;;;;;;;;;4913280;29;20060;-65
2023/02/08 10:15:46;;;;;;;19.85;6.63;;;;;;;;;;4912834;29;20068;-64
2023/02/08 10:18:44;;;;;;;16.73;6.68;;;;;;;;;;4912376;29;20071;-65
2023/02/08 10:21:49;;;;;;;18.30;6.55;;;;;;;;;;4913136;29;20529;-65
2023/02/08 10:24:26;;;;;;;18.85;6.65;;;;;;;;;;4875212;29;20057;-65
2023/02/08 10:27:16;;;;;;;13.60;6.07;;;;;;;;;;4874705;29;20064;-65
2023/02/08 10:30:03;;;;;;;14.80;6.00;;;;;;;;;;4866902;29;20536;-65
2023/02/08 10:32:51;;;;;;;10.77;5.43;;;;;;;;;;4838487;29;20052;-65
2023/02/08 10:35:28;;;;;;;14.75;6.30;;;;;;;;;;4969887;28;20063;-65
2023/02/08 10:37:58;;;;;;;16.48;6.55;;;;;;;;;;4969755;28;20630;-65
2023/02/08 10:40:39;;;;;;;13.40;6.72;;;;;;;;;;4937656;28;20062;-65
2023/02/08 10:43:36;;;;;;;14.32;6.05;;;;;;;;;;4972342;28;20419;-66
2023/02/08 10:46:27;;;;;;;18.25;6.60;;;;;;;;;;4984447;28;20045;-66
2023/02/08 10:49:03;;;;;;;11.40;5.47;;;;;;;;;;4960018;28;20057;-65
2023/02/08 10:51:34;;;;;;;19.92;6.22;;;;;;;;;;5008917;28;20057;-66
2023/02/08 10:54:05;;;;;;;13.35;6.53;;;;;;;;;;4976478;28;20064;-65
2023/02/08 10:56:59;;;;;;;12.93;6.05;;;;;;;;;;4992864;28;20054;-65
2023/02/08 10:59:31;;;;;;;14.65;5.72;;;;;;;;;;4959854;28;20061;-65
2023/02/08 11:02:02;;;;;;;16.67;6.50;;;;;;;;;;5067612;28;20053;-65
2023/02/08 11:04:32;;;;;;;14.15;6.38;;;;;;;;;;5068582;28;20060;-65
2023/02/08 11:07:20;;;;;;;12.20;5.47;;;;;;;;;;5067109;28;20076;-65
2023/02/08 11:09:50;;;;;;;12.52;5.95;;;;;;;;;;5017974;28;20049;-65
2023/02/08 11:12:22;;;;;;;12.32;5.55;;;;;;;;;;5044789;28;20053;-65
2023/02/08 11:14:52;;;;;;;14.25;5.68;;;;;;;;;;5044797;28;20053;-65
2023/02/08 11:17:26;;;;;;;12.70;5.72;;;;;;;;;;5044579;28;20060;-65
2023/02/08 11:19:57;;;;;;;16.20;5.50;;;;;;;;;;5039155;28;20053;-65
2023/02/08 11:22:33;;;;;;;12.23;5.28;;;;;;;;;;5075205;28;20066;-65
2023/02/08 11:25:06;;;;;;;19.05;5.30;;;;;;;;;;5093154;28;20055;-65
2023/02/08 11:27:47;;;;;;;14.75;5.57;;;;;;;;;;5067927;28;20048;-65
2023/02/08 11:30:23;;;;;;;13.65;5.53;;;;;;;;;;5027013;28;20064;-63
2023/02/08 11:33:30;;;;;;;13.45;5.45;;;;;;;;;;5033146;28;20064;-63
2023/02/08 11:36:06;;;;;;;8.23;3.92;;;;;;;;;;4952978;28;20055;-64
2023/02/08 11:38:41;;;;;;;10.32;4.38;;;;;;;;;;4970800;28;20063;-63
2023/02/08 11:41:18;;;;;;;11.25;4.70;;;;;;;;;;4988951;28;20051;-62
2023/02/08 11:44:07;;;;;;;6.45;3.30;;;;;;;;;;4957241;28;20085;-63
2023/02/08 11:46:40;;;;;;;6.65;3.00;;;;;;;;;;4992854;28;20061;-63
2023/02/08 11:49:24;;;;;;;5.28;2.83;;;;;;;;;;4943900;28;20046;-64
2023/02/08 11:51:54;;;;;;;7.32;3.30;;;;;;;;;;4992941;28;20422;-65
2023/02/08 11:54:41;;;;;;;6.50;3.03;;;;;;;;;;5012169;28;20046;-65
2023/02/08 11:57:20;;;;;;;6.15;2.90;;;;;;;;;;4992148;28;20167;-64
2023/02/08 12:00:09;;;;;;;8.07;3.08;;;;;;;;;;4930703;28;20077;-64
2023/02/08 12:02:42;;;;;;;6.88;3.50;;;;;;;;;;4953652;28;20060;-65
2023/02/08 12:05:17;;;;;;;5.45;2.80;;;;;;;;;;4955840;28;20533;-65
2023/02/08 12:08:02;;;;;;;5.93;2.85;;;;;;;;;;4972678;28;20051;-64
2023/02/08 12:10:55;;;;;;;6.18;2.92;;;;;;;;;;4980514;28;20054;-65
2023/02/08 12:13:54;;;;;;;6.65;2.50;;;;;;;;;;4998263;28;20093;-65
2023/02/08 12:16:36;;;;;;;7.22;2.75;;;;;;;;;;4953369;29;20055;-65
2023/02/08 12:19:26;;;;;;;8.52;3.10;;;;;;;;;;4968318;28;20067;-64
2023/02/08 12:22:06;;;;;;;7.78;2.92;;;;;;;;;;4959089;28;20050;-64
2023/02/08 12:24:57;;;;;;;7.70;3.92;;;;;;;;;;4991694;28;20453;-64
2023/02/08 12:27:54;;;;;;;5.38;2.22;;;;;;;;;;4991489;28;20529;-65
2023/02/08 12:30:39;;;;;;;5.65;2.70;;;;;;;;;;4996702;28;20171;-65
2023/02/08 12:33:43;;;;;;;5.22;2.10;;;;;;;;;;5026382;28;20049;-65
2023/02/08 12:36:31;;;;;;;6.47;2.42;;;;;;;;;;4991935;28;20507;-63
2023/02/08 12:42:33;;;;;;;4.35;2.17;;;;;;;;;;4967550;28;20086;-64
2023/02/08 12:45:12;;;;;;;4.97;2.78;;;;;;;;;;4991595;28;20042;-65
2023/02/08 12:48:26;;;;;;;6.80;2.33;;;;;;;;;;4974741;28;20050;-65
2023/02/08 12:51:05;;;;;;;4.63;2.30;;;;;;;;;;4968080;28;20526;-65
2023/02/08 12:53:42;;;;;;;6.03;2.00;;;;;;;;;;4983051;28;20423;-64
2023/02/08 12:56:21;;;;;;;5.65;2.13;;;;;;;;;;4958634;28;20050;-64
2023/02/08 12:58:57;;;;;;;6.80;2.42;;;;;;;;;;4971555;28;20061;-64
2023/02/08 13:01:50;;;;;;;5.45;2.13;;;;;;;;;;4957508;28;20042;-64
2023/02/08 13:04:29;;;;;;;12.30;9.13;;;;;;;;;;4935382;28;20534;-65
2023/02/08 13:07:08;;;;;;;32.65;26.05;;;;;;;;;;4971728;28;20063;-66
2023/02/08 13:09:58;;;;;;;11.30;7.80;;;;;;;;;;4971594;28;20043;-66
2023/02/08 13:12:37;;;;;;;6.15;3.45;;;;;;;;;;4975822;28;20070;-65
2023/02/08 13:15:23;;;;;;;6.75;3.58;;;;;;;;;;4990358;28;20545;-64
2023/02/08 13:18:04;;;;;;;5.60;2.45;;;;;;;;;;4962081;28;20066;-64
2023/02/08 13:20:42;;;;;;;6.70;2.30;;;;;;;;;;4939098;28;20074;-64
2023/02/08 13:23:25;;;;;;;5.78;2.20;;;;;;;;;;4971537;28;20063;-64
2023/02/08 13:26:02;;;;;;;3.70;2.03;;;;;;;;;;4924289;28;20059;-64
2023/02/08 13:28:32;;;;;;;5.22;2.00;;;;;;;;;;5031619;28;20516;-63
2023/02/08 13:31:12;;;;;;;5.95;2.22;;;;;;;;;;5016146;28;20510;-65
2023/02/08 13:33:57;;;;;;;4.50;1.83;;;;;;;;;;5069353;28;20067;-64
2023/02/08 13:36:33;;;;;;;3.85;1.90;;;;;;;;;;5020201;28;20052;-65
2023/02/08 13:39:24;;;;;;;4.88;1.80;;;;;;;;;;5019894;28;20199;-65
2023/02/08 13:41:55;;;;;;;3.78;2.17;;;;;;;;;;5069699;28;20041;-64
2023/02/08 13:44:36;;;;;;;4.97;1.98;;;;;;;;;;5004769;28;20045;-65
2023/02/08 13:47:24;;;;;;;5.00;2.03;;;;;;;;;;5033367;28;20053;-65
2023/02/08 13:49:58;;;;;;;4.95;2.03;;;;;;;;;;5100503;28;20048;-65
2023/02/08 13:52:35;;;;;;;5.68;2.10;;;;;;;;;;5112420;28;20044;-66
2023/02/08 13:55:40;;;;;;;4.93;1.98;;;;;;;;;;5112174;28;20039;-65
2023/02/08 13:58:14;;;;;;;5.20;2.00;;;;;;;;;;5076565;28;20058;-66
2023/02/08 14:00:53;;;;;;;5.38;1.95;;;;;;;;;;5089357;28;20048;-66
2023/02/08 14:03:26;;;;;;;3.80;2.17;;;;;;;;;;5088428;28;20171;-65
2023/02/08 14:06:22;;;;;;;4.18;2.17;;;;;;;;;;5069231;28;20053;-66
2023/02/08 14:09:05;;;;;;;3.80;1.73;;;;;;;;;;4989828;28;20449;-66
2023/02/08 14:11:48;;;;;;;3.88;2.30;;;;;;;;;;4990236;28;20054;-66
2023/02/08 14:14:39;;;;;;;4.45;2.30;;;;;;;;;;4962300;28;20514;-65
2023/02/08 14:17:28;;;;;;;2.92;1.85;;;;;;;;;;4992461;28;20062;-65
2023/02/08 14:20:03;;;;;;;6.05;2.10;;;;;;;;;;4973812;28;20069;-64
2023/02/08 14:22:38;;;;;;;8.73;1.73;;;;;;;;;;5007119;28;20065;-65
2023/02/08 14:25:20;;;;;;;7.00;2.10;;;;;;;;;;4956995;28;20113;-65
2023/02/08 14:28:01;;;;;;;5.20;2.03;;;;;;;;;;4956947;28;20536;-64
2023/02/08 14:30:33;;;;;;;6.28;1.80;;;;;;;;;;4989769;28;20114;-65
2023/02/08 14:33:03;;;;;;;8.35;2.03;;;;;;;;;;4973773;28;20063;-65
2023/02/08 14:35:40;;;;;;;5.47;2.00;;;;;;;;;;4941107;28;20065;-65
2023/02/08 14:38:20;;;;;;;5.05;1.70;;;;;;;;;;4997895;28;20532;-65
2023/02/08 14:41:00;;;;;;;6.25;2.03;;;;;;;;;;5009349;28;20382;-66
2023/02/08 14:43:39;;;;;;;6.50;1.70;;;;;;;;;;5009230;28;20390;-65
2023/02/08 14:46:40;;;;;;;4.55;1.80;;;;;;;;;;5073233;28;20495;-66
2023/02/08 14:49:16;;;;;;;6.20;2.05;;;;;;;;;;5075603;28;20081;-64
2023/02/08 14:52:11;;;;;;;5.63;1.70;;;;;;;;;;5028689;28;20495;-63
2023/02/08 14:54:47;;;;;;;7.55;1.98;;;;;;;;;;5111329;28;20043;-62
2023/02/08 14:57:30;;;;;;;6.95;1.63;;;;;;;;;;5056596;28;20675;-63
2023/02/08 15:00:05;;;;;;;6.78;1.80;;;;;;;;;;5091440;28;20575;-64
2023/02/08 15:02:41;;;;;;;4.57;1.70;;;;;;;;;;5089155;28;20063;-65
2023/02/08 15:05:27;;;;;;;5.50;1.88;;;;;;;;;;5098413;28;20043;-65
2023/02/08 15:07:58;;;;;;;6.30;1.85;;;;;;;;;;5026921;28;20074;-64
2023/02/08 15:10:29;;;;;;;;;;;;;;;;;;4999892;28;20049;-64
2023/02/08 15:13:05;;;;;;;4.70;1.88;;;;;;;;;;5048300;28;19921;-64
2023/02/08 15:15:44;;;;;;;7.60;5.25;;;;;;;;;;5048759;28;20099;-64
2023/02/08 15:18:32;;;;;;;3.67;2.00;;;;;;;;;;5025633;28;20057;-64
2023/02/08 15:21:06;;;;;;;4.78;1.95;;;;;;;;;;5068807;28;20047;-64
2023/02/08 15:23:36;;;;;;;2.58;1.60;;;;;;;;;;5068358;28;20048;-64
2023/02/08 15:26:21;;;;;;;3.08;1.85;;;;;;;;;;5068339;28;20052;-64
2023/02/08 15:28:53;;;;;;;5.72;1.77;;;;;;;;;;5060654;28;20052;-64
2023/02/08 15:31:30;;;;;;;4.38;1.88;;;;;;;;;;5051864;28;20044;-64